sensor_id;sensor_type;location;lat;lon;timestamp;pressure;altitude;pressure_sealevel;temperature;humidity
19797;BME280;10058;57.654;12.044;2022-10-28T00:02:02;101659.25;;;15.18;100.00
19797;BME280;10058;57.654;12.044;2022-10-28T00:04:27;101657.50;;;15.18;100.00
19797;BME280;10058;57.654;12.044;2022-10-28T00:06:52;101655.59;;;15.13;100.00
19797;BME280;10058;57.654;12.044;2022-10-28T00:09:17;101649.50;;;15.18;100.00
19797;BME280;10058;57.654;12.044;2022-10-28T00:11:42;101634.47;;;15.20;100.00
19797;BME280;10058;57.654;12.044;2022-10-28T00:14:08;101637.97;;;15.18;100.00
19797;BME280;10058;57.654;12.044;2022-10-28T00:16:34;101624.59;;;15.16;100.00
19797;BME280;10058;57.654;12.044;2022-10-28T00:19:01;101623.84;;;15.22;100.00
19797;BME280;10058;57.654;12.044;2022-10-28T00:21:28;101611.25;;;15.15;100.00
19797;BME280;10058;57.654;12.044;2022-10-28T00:23:53;101599.69;;;15.14;100.00
19797;BME280;10058;57.654;12.044;2022-10-28T00:26:25;101598.97;;;15.21;100.00
19797;BME280;10058;57.654;12.044;2022-10-28T00:28:52;101576.75;;;15.19;100.00
19797;BME280;10058;57.654;12.044;2022-10-28T00:31:18;101574.91;;;15.17;100.00
19797;BME280;10058;57.654;12.044;2022-10-28T00:33:43;101571.41;;;15.19;100.00
19797;BME280;10058;57.654;12.044;2022-10-28T00:36:13;101550.03;;;15.16;100.00
19797;BME280;10058;57.654;12.044;2022-10-28T00:38:39;101534.06;;;15.16;100.00
19797;BME280;10058;57.654;12.044;2022-10-28T00:41:05;101522.44;;;15.13;100.00
19797;BME280;10058;57.654;12.044;2022-10-28T00:45:59;101530.28;;;15.05;100.00
19797;BME280;10058;57.654;12.044;2022-10-28T00:48:25;101521.44;;;15.06;100.00
19797;BME280;10058;57.654;12.044;2022-10-28T00:50:50;101527.69;;;15.10;100.00
19797;BME280;10058;57.654;12.044;2022-10-28T00:53:18;101517.19;;;15.16;100.00
19797;BME280;10058;57.654;12.044;2022-10-28T00:55:45;101512.69;;;15.13;100.00
19797;BME280;10058;57.654;12.044;2022-10-28T00:58:12;101509.22;;;15.17;100.00
19797;BME280;10058;57.654;12.044;2022-10-28T01:00:38;101506.31;;;15.07;100.00
19797;BME280;10058;57.654;12.044;2022-10-28T01:03:03;101509.22;;;15.17;100.00
19797;BME280;10058;57.654;12.044;2022-10-28T01:05:29;101503.97;;;15.20;100.00
19797;BME280;10058;57.654;12.044;2022-10-28T01:07:56;101505.81;;;15.24;100.00
19797;BME280;10058;57.654;12.044;2022-10-28T01:10:23;101498.72;;;15.23;100.00
19797;BME280;10058;57.654;12.044;2022-10-28T01:12:57;101505.66;;;15.17;100.00
19797;BME280;10058;57.654;12.044;2022-10-28T01:17:54;101508.50;;;15.26;100.00
19797;BME280;10058;57.654;12.044;2022-10-28T01:25:40;101501.41;;;15.26;100.00
19797;BME280;10058;57.654;12.044;2022-10-28T01:33:25;101480.19;;;15.31;100.00
19797;BME280;10058;57.654;12.044;2022-10-28T01:35:53;101486.50;;;15.35;100.00
19797;BME280;10058;57.654;12.044;2022-10-28T01:38:29;101477.56;;;15.32;100.00
19797;BME280;10058;57.654;12.044;2022-10-28T01:41:13;101457.19;;;15.35;100.00
19797;BME280;10058;57.654;12.044;2022-10-28T01:43:46;101456.41;;;15.42;100.00
19797;BME280;10058;57.654;12.044;2022-10-28T01:46:27;101451.84;;;15.33;100.00
19797;BME280;10058;57.654;12.044;2022-10-28T01:48:58;101451.94;;;15.38;100.00
19797;BME280;10058;57.654;12.044;2022-10-28T01:51:31;101436.94;;;15.44;100.00
19797;BME280;10058;57.654;12.044;2022-10-28T01:53:58;101435.28;;;15.51;100.00
19797;BME280;10058;57.654;12.044;2022-10-28T01:56:26;101430.63;;;15.38;100.00
19797;BME280;10058;57.654;12.044;2022-10-28T01:58:54;101429.78;;;15.42;100.00
19797;BME280;10058;57.654;12.044;2022-10-28T02:01:20;101438.63;;;15.38;100.00
19797;BME280;10058;57.654;12.044;2022-10-28T02:03:46;101443.03;;;15.37;100.00
19797;BME280;10058;57.654;12.044;2022-10-28T02:06:14;101444.69;;;15.30;100.00
19797;BME280;10058;57.654;12.044;2022-10-28T02:08:51;101438.53;;;15.35;100.00
19797;BME280;10058;57.654;12.044;2022-10-28T02:13:51;101435.09;;;15.39;100.00
19797;BME280;10058;57.654;12.044;2022-10-28T02:18:48;101425.16;;;15.31;100.00
19797;BME280;10058;57.654;12.044;2022-10-28T02:21:26;101419.91;;;15.35;100.00
19797;BME280;10058;57.654;12.044;2022-10-28T02:24:39;101408.47;;;15.42;100.00
19797;BME280;10058;57.654;12.044;2022-10-28T02:26:46;101395.06;;;15.36;100.00
19797;BME280;10058;57.654;12.044;2022-10-28T02:29:14;101401.19;;;15.31;100.00
19797;BME280;10058;57.654;12.044;2022-10-28T02:31:48;101401.19;;;15.31;100.00
19797;BME280;10058;57.654;12.044;2022-10-28T02:34:20;101393.25;;;15.35;100.00
19797;BME280;10058;57.654;12.044;2022-10-28T02:36:48;101392.47;;;15.39;100.00
19797;BME280;10058;57.654;12.044;2022-10-28T02:39:15;101391.50;;;15.35;100.00
19797;BME280;10058;57.654;12.044;2022-10-28T02:41:43;101383.53;;;15.37;100.00
19797;BME280;10058;57.654;12.044;2022-10-28T02:44:14;101241.84;;;14.56;100.00
19797;BME280;10058;57.654;12.044;2022-10-28T02:46:42;101376.47;;;15.39;100.00
19797;BME280;10058;57.654;12.044;2022-10-28T02:49:09;101359.47;;;15.32;100.00
19797;BME280;10058;57.654;12.044;2022-10-28T02:51:37;101352.31;;;15.29;100.00
19797;BME280;10058;57.654;12.044;2022-10-28T02:54:06;101360.31;;;15.29;100.00
19797;BME280;10058;57.654;12.044;2022-10-28T02:56:37;101355.09;;;15.36;100.00
19797;BME280;10058;57.654;12.044;2022-10-28T02:59:07;101356.06;;;15.39;100.00
19797;BME280;10058;57.654;12.044;2022-10-28T03:01:32;101349.78;;;15.36;100.00
19797;BME280;10058;57.654;12.044;2022-10-28T03:03:57;101347.13;;;15.36;100.00
19797;BME280;10058;57.654;12.044;2022-10-28T03:06:22;101341.72;;;15.32;100.00
19797;BME280;10058;57.654;12.044;2022-10-28T03:08:48;101337.38;;;15.38;100.00
19797;BME280;10058;57.654;12.044;2022-10-28T03:11:13;101344.41;;;15.32;100.00
19797;BME280;10058;57.654;12.044;2022-10-28T03:13:38;101349.84;;;15.42;100.00
19797;BME280;10058;57.654;12.044;2022-10-28T03:16:03;101341.00;;;15.43;100.00
19797;BME280;10058;57.654;12.044;2022-10-28T03:18:28;101340.91;;;15.37;100.00
19797;BME280;10058;57.654;12.044;2022-10-28T03:20:54;101334.59;;;15.31;100.00
19797;BME280;10058;57.654;12.044;2022-10-28T03:23:19;101340.09;;;15.39;100.00
19797;BME280;10058;57.654;12.044;2022-10-28T03:25:44;101341.84;;;15.39;100.00
19797;BME280;10058;57.654;12.044;2022-10-28T03:28:09;101348.03;;;15.38;100.00
19797;BME280;10058;57.654;12.044;2022-10-28T03:30:34;101341.75;;;15.34;100.00
19797;BME280;10058;57.654;12.044;2022-10-28T03:33:00;101342.78;;;15.41;100.00
19797;BME280;10058;57.654;12.044;2022-10-28T03:35:25;101335.59;;;15.37;100.00
19797;BME280;10058;57.654;12.044;2022-10-28T03:37:50;101332.97;;;15.40;100.00
19797;BME280;10058;57.654;12.044;2022-10-28T03:40:15;101329.47;;;15.44;100.00
19797;BME280;10058;57.654;12.044;2022-10-28T03:42:41;101331.03;;;15.31;100.00
19797;BME280;10058;57.654;12.044;2022-10-28T03:45:06;101330.31;;;15.40;100.00
19797;BME280;10058;57.654;12.044;2022-10-28T03:47:32;101321.22;;;15.28;100.00
19797;BME280;10058;57.654;12.044;2022-10-28T03:49:57;101330.19;;;15.32;100.00
19797;BME280;10058;57.654;12.044;2022-10-28T03:52:23;101328.47;;;15.36;100.00
19797;BME280;10058;57.654;12.044;2022-10-28T03:54:48;101339.13;;;15.36;100.00
19797;BME280;10058;57.654;12.044;2022-10-28T03:57:13;101331.19;;;15.39;100.00
19797;BME280;10058;57.654;12.044;2022-10-28T03:59:38;101334.63;;;15.33;100.00
19797;BME280;10058;57.654;12.044;2022-10-28T04:02:03;101337.22;;;15.28;100.00
19797;BME280;10058;57.654;12.044;2022-10-28T04:04:29;101329.25;;;15.30;100.00
19797;BME280;10058;57.654;12.044;2022-10-28T04:06:54;101339.06;;;15.32;100.00
19797;BME280;10058;57.654;12.044;2022-10-28T04:09:19;101334.66;;;15.35;100.00
19797;BME280;10058;57.654;12.044;2022-10-28T04:11:47;101330.09;;;15.27;100.00
19797;BME280;10058;57.654;12.044;2022-10-28T04:14:15;101328.22;;;15.20;100.00
19797;BME280;10058;57.654;12.044;2022-10-28T04:16:41;101326.50;;;15.25;100.00
19797;BME280;10058;57.654;12.044;2022-10-28T04:19:06;101324.84;;;15.32;100.00
19797;BME280;10058;57.654;12.044;2022-10-28T04:21:31;101322.16;;;15.30;100.00
19797;BME280;10058;57.654;12.044;2022-10-28T04:23:56;101314.94;;;15.23;100.00
19797;BME280;10058;57.654;12.044;2022-10-28T04:26:21;101317.63;;;15.26;100.00
19797;BME280;10058;57.654;12.044;2022-10-28T04:28:47;101317.69;;;15.29;100.00
19797;BME280;10058;57.654;12.044;2022-10-28T04:31:12;101318.50;;;15.25;100.00
19797;BME280;10058;57.654;12.044;2022-10-28T04:33:37;101320.28;;;15.23;100.00
19797;BME280;10058;57.654;12.044;2022-10-28T04:36:02;101314.09;;;15.27;100.00
19797;BME280;10058;57.654;12.044;2022-10-28T04:38:27;101320.25;;;15.22;100.00
19797;BME280;10058;57.654;12.044;2022-10-28T04:40:53;101320.38;;;15.29;100.00
19797;BME280;10058;57.654;12.044;2022-10-28T04:43:20;101319.31;;;15.20;100.00
19797;BME280;10058;57.654;12.044;2022-10-28T04:45:45;101312.50;;;15.36;100.00
19797;BME280;10058;57.654;12.044;2022-10-28T04:48:11;101317.69;;;15.29;100.00
19797;BME280;10058;57.654;12.044;2022-10-28T04:50:36;101317.75;;;15.32;100.00
19797;BME280;10058;57.654;12.044;2022-10-28T04:53:02;101308.72;;;15.24;100.00
19797;BME280;10058;57.654;12.044;2022-10-28T04:55:27;101323.03;;;15.29;100.00
19797;BME280;10058;57.654;12.044;2022-10-28T04:57:56;101321.28;;;15.31;100.00
19797;BME280;10058;57.654;12.044;2022-10-28T05:00:22;101321.16;;;15.24;100.00
19797;BME280;10058;57.654;12.044;2022-10-28T05:02:47;101326.63;;;15.31;100.00
19797;BME280;10058;57.654;12.044;2022-10-28T05:05:12;101326.56;;;15.28;100.00
19797;BME280;10058;57.654;12.044;2022-10-28T05:07:38;101328.34;;;15.29;100.00
19797;BME280;10058;57.654;12.044;2022-10-28T05:10:03;101330.03;;;15.24;100.00
19797;BME280;10058;57.654;12.044;2022-10-28T05:12:29;101328.34;;;15.29;100.00
19797;BME280;10058;57.654;12.044;2022-10-28T05:14:54;101323.88;;;15.27;100.00
19797;BME280;10058;57.654;12.044;2022-10-28T05:17:19;101324.88;;;15.33;100.00
19797;BME280;10058;57.654;12.044;2022-10-28T05:19:44;101321.34;;;15.35;100.00
19797;BME280;10058;57.654;12.044;2022-10-28T05:22:10;101322.16;;;15.30;100.00
19797;BME280;10058;57.654;12.044;2022-10-28T05:24:35;101315.06;;;15.31;100.00
19797;BME280;10058;57.654;12.044;2022-10-28T05:27:00;101302.56;;;15.27;100.00
19797;BME280;10058;57.654;12.044;2022-10-28T05:29:25;101308.03;;;15.35;100.00
19797;BME280;10058;57.654;12.044;2022-10-28T05:31:50;101309.84;;;15.37;100.00
19797;BME280;10058;57.654;12.044;2022-10-28T05:34:16;101314.22;;;15.33;100.00
19797;BME280;10058;57.654;12.044;2022-10-28T05:36:41;101306.91;;;15.20;100.00
19797;BME280;10058;57.654;12.044;2022-10-28T05:39:06;101300.84;;;15.30;100.00
19797;BME280;10058;57.654;12.044;2022-10-28T05:41:31;101307.22;;;15.39;100.00
19797;BME280;10058;57.654;12.044;2022-10-28T05:43:56;101302.72;;;15.36;100.00
19797;BME280;10058;57.654;12.044;2022-10-28T05:46:22;101274.78;;;15.11;100.00
19797;BME280;10058;57.654;12.044;2022-10-28T05:48:47;101301.88;;;15.39;100.00
19797;BME280;10058;57.654;12.044;2022-10-28T05:51:13;101303.72;;;15.43;100.00
19797;BME280;10058;57.654;12.044;2022-10-28T05:53:38;101301.88;;;15.37;100.00
19797;BME280;10058;57.654;12.044;2022-10-28T05:56:05;101307.16;;;15.36;100.00
19797;BME280;10058;57.654;12.044;2022-10-28T05:58:30;101303.69;;;15.40;100.00
19797;BME280;10058;57.654;12.044;2022-10-28T06:00:56;101303.63;;;15.37;100.00
19797;BME280;10058;57.654;12.044;2022-10-28T06:03:21;101307.13;;;15.34;100.00
19797;BME280;10058;57.654;12.044;2022-10-28T06:05:46;101310.81;;;15.41;100.00
19797;BME280;10058;57.654;12.044;2022-10-28T06:08:12;101309.09;;;15.46;100.00
19797;BME280;10058;57.654;12.044;2022-10-28T06:10:37;101311.56;;;15.33;100.00
19797;BME280;10058;57.654;12.044;2022-10-28T06:13:03;101310.56;;;15.28;100.00
19797;BME280;10058;57.654;12.044;2022-10-28T06:15:28;101315.09;;;15.32;100.00
19797;BME280;10058;57.654;12.044;2022-10-28T06:17:53;101314.94;;;15.22;100.00
19797;BME280;10058;57.654;12.044;2022-10-28T06:20:18;101315.97;;;15.31;100.00
19797;BME280;10058;57.654;12.044;2022-10-28T06:22:48;101313.16;;;15.24;100.00
19797;BME280;10058;57.654;12.044;2022-10-28T06:25:13;101317.69;;;15.29;100.00
19797;BME280;10058;57.654;12.044;2022-10-28T06:27:39;101308.78;;;15.27;100.00
19797;BME280;10058;57.654;12.044;2022-10-28T06:30:04;101317.63;;;15.26;100.00
19797;BME280;10058;57.654;12.044;2022-10-28T06:32:29;101319.38;;;15.24;100.00
19797;BME280;10058;57.654;12.044;2022-10-28T06:34:55;101321.81;;;15.11;100.00
19797;BME280;10058;57.654;12.044;2022-10-28T06:37:20;101313.91;;;15.15;100.00
19797;BME280;10058;57.654;12.044;2022-10-28T06:39:45;101317.41;;;15.13;100.00
19797;BME280;10058;57.654;12.044;2022-10-28T06:42:15;101322.81;;;15.17;100.00
19797;BME280;10058;57.654;12.044;2022-10-28T06:44:40;101328.34;;;15.29;100.00
19797;BME280;10058;57.654;12.044;2022-10-28T06:47:05;101321.22;;;15.28;100.00
19797;BME280;10058;57.654;12.044;2022-10-28T06:49:30;101326.34;;;15.16;100.00
19797;BME280;10058;57.654;12.044;2022-10-28T06:51:55;101331.81;;;15.22;100.00
19797;BME280;10058;57.654;12.044;2022-10-28T06:54:21;101332.75;;;15.27;100.00
19797;BME280;10058;57.654;12.044;2022-10-28T06:56:46;101338.09;;;15.29;100.00
19797;BME280;10058;57.654;12.044;2022-10-28T06:59:11;101347.06;;;15.32;100.00
19797;BME280;10058;57.654;12.044;2022-10-28T07:01:36;101344.34;;;15.29;100.00
19797;BME280;10058;57.654;12.044;2022-10-28T07:04:01;101351.47;;;15.30;100.00
19797;BME280;10058;57.654;12.044;2022-10-28T07:06:27;101343.44;;;15.29;100.00
19797;BME280;10058;57.654;12.044;2022-10-28T07:08:52;101353.13;;;15.25;100.00
19797;BME280;10058;57.654;12.044;2022-10-28T07:11:17;101353.19;;;15.28;100.00
19797;BME280;10058;57.654;12.044;2022-10-28T07:13:42;101356.66;;;15.24;100.00
19797;BME280;10058;57.654;12.044;2022-10-28T07:16:08;101347.72;;;15.19;100.00
19797;BME280;10058;57.654;12.044;2022-10-28T07:18:33;101354.84;;;15.20;100.00
19797;BME280;10058;57.654;12.044;2022-10-28T07:20:59;101352.28;;;15.28;100.00
19797;BME280;10058;57.654;12.044;2022-10-28T07:23:24;101351.44;;;15.29;100.00
19797;BME280;10058;57.654;12.044;2022-10-28T07:25:50;101353.19;;;15.28;100.00
19797;BME280;10058;57.654;12.044;2022-10-28T07:28:16;101353.19;;;15.28;100.00
19797;BME280;10058;57.654;12.044;2022-10-28T07:30:41;101349.59;;;15.26;100.00
19797;BME280;10058;57.654;12.044;2022-10-28T07:33:06;101353.09;;;15.22;100.00
19797;BME280;10058;57.654;12.044;2022-10-28T07:35:31;101353.25;;;15.31;100.00
19797;BME280;10058;57.654;12.044;2022-10-28T07:37:57;101358.63;;;15.35;100.00
19797;BME280;10058;57.654;12.044;2022-10-28T07:40:23;101366.41;;;15.24;100.00
19797;BME280;10058;57.654;12.044;2022-10-28T07:42:48;101360.31;;;15.29;100.00
19797;BME280;10058;57.654;12.044;2022-10-28T07:45:14;101367.50;;;15.33;100.00
19797;BME280;10058;57.654;12.044;2022-10-28T07:47:39;101351.56;;;15.37;100.00
19797;BME280;10058;57.654;12.044;2022-10-28T07:50:05;101367.44;;;15.30;100.00
19797;BME280;10058;57.654;12.044;2022-10-28T07:52:30;101350.53;;;15.28;100.00
19797;BME280;10058;57.654;12.044;2022-10-28T07:54:55;101356.97;;;15.40;100.00
19797;BME280;10058;57.654;12.044;2022-10-28T07:57:21;101362.97;;;15.29;100.00
19797;BME280;10058;57.654;12.044;2022-10-28T07:59:46;101360.44;;;15.36;100.00
19797;BME280;10058;57.654;12.044;2022-10-28T08:02:16;101362.97;;;15.29;100.00
19797;BME280;10058;57.654;12.044;2022-10-28T08:04:41;101363.09;;;15.36;100.00
19797;BME280;10058;57.654;12.044;2022-10-28T08:07:06;101360.44;;;15.36;100.00
19797;BME280;10058;57.654;12.044;2022-10-28T08:09:32;101370.28;;;15.41;100.00
19797;BME280;10058;57.654;12.044;2022-10-28T08:11:57;101372.81;;;15.33;100.00
19797;BME280;10058;57.654;12.044;2022-10-28T08:14:22;101366.69;;;15.38;100.00
19797;BME280;10058;57.654;12.044;2022-10-28T08:16:47;101378.16;;;15.33;100.00
19797;BME280;10058;57.654;12.044;2022-10-28T08:19:12;101380.88;;;15.37;100.00
19797;BME280;10058;57.654;12.044;2022-10-28T08:21:38;101368.50;;;15.42;100.00
19797;BME280;10058;57.654;12.044;2022-10-28T08:24:03;101381.69;;;15.32;100.00
19797;BME280;10058;57.654;12.044;2022-10-28T08:26:28;101383.63;;;15.43;100.00
19797;BME280;10058;57.654;12.044;2022-10-28T08:28:54;101375.63;;;15.43;100.00
19797;BME280;10058;57.654;12.044;2022-10-28T08:31:19;101377.50;;;15.48;100.00
19797;BME280;10058;57.654;12.044;2022-10-28T08:33:44;101375.97;;;15.58;100.00
19797;BME280;10058;57.654;12.044;2022-10-28T08:36:13;101365.09;;;15.49;100.00
19797;BME280;10058;57.654;12.044;2022-10-28T08:38:39;101365.22;;;15.55;100.00
19797;BME280;10058;57.654;12.044;2022-10-28T08:48:40;101358.03;;;15.51;100.00
19797;BME280;10058;57.654;12.044;2022-10-28T08:53:38;101358.06;;;15.52;100.00
19797;BME280;10058;57.654;12.044;2022-10-28T08:56:26;101368.66;;;15.49;100.00
19797;BME280;10058;57.654;12.044;2022-10-28T08:58:52;101368.56;;;15.45;100.00
19797;BME280;10058;57.654;12.044;2022-10-28T09:01:25;101374.06;;;15.54;100.00
19797;BME280;10058;57.654;12.044;2022-10-28T09:03:55;101371.50;;;15.57;100.00
19797;BME280;10058;57.654;12.044;2022-10-28T09:06:21;101373.28;;;15.58;100.00
19797;BME280;10058;57.654;12.044;2022-10-28T09:08:47;101376.97;;;15.66;100.00
19797;BME280;10058;57.654;12.044;2022-10-28T09:16:44;101377.72;;;15.57;100.00
19797;BME280;10058;57.654;12.044;2022-10-28T09:21:58;101378.63;;;15.58;100.00
19797;BME280;10058;57.654;12.044;2022-10-28T09:27:08;101387.41;;;15.54;100.00
19797;BME280;10058;57.654;12.044;2022-10-28T09:32:23;101394.34;;;15.46;100.00
19797;BME280;10058;57.654;12.044;2022-10-28T09:34:53;101387.06;;;15.36;100.00
19797;BME280;10058;57.654;12.044;2022-10-28T09:37:22;101392.50;;;15.40;100.00
19797;BME280;10058;57.654;12.044;2022-10-28T09:39:52;101386.28;;;15.43;100.00
19797;BME280;10058;57.654;12.044;2022-10-28T09:42:22;101385.41;;;15.41;100.00
19797;BME280;10058;57.654;12.044;2022-10-28T09:44:54;101384.59;;;15.46;100.00
19797;BME280;10058;57.654;12.044;2022-10-28T09:47:23;101390.75;;;15.44;100.00
19797;BME280;10058;57.654;12.044;2022-10-28T09:49:52;101388.75;;;15.30;100.00
19797;BME280;10058;57.654;12.044;2022-10-28T09:52:26;101388.88;;;15.37;100.00
19797;BME280;10058;57.654;12.044;2022-10-28T09:54:54;101390.53;;;15.31;100.00
19797;BME280;10058;57.654;12.044;2022-10-28T09:57:21;101383.41;;;15.30;100.00
19797;BME280;10058;57.654;12.044;2022-10-28T09:59:48;101380.88;;;15.37;100.00
19797;BME280;10058;57.654;12.044;2022-10-28T10:04:45;101396.91;;;15.41;100.00
19797;BME280;10058;57.654;12.044;2022-10-28T10:07:10;101385.41;;;15.41;100.00
19797;BME280;10058;57.654;12.044;2022-10-28T10:09:36;101379.16;;;15.40;100.00
19797;BME280;10058;57.654;12.044;2022-10-28T10:12:09;101378.28;;;15.40;100.00
19797;BME280;10058;57.654;12.044;2022-10-28T10:24:55;101368.34;;;15.31;100.00
19797;BME280;10058;57.654;12.044;2022-10-28T10:27:20;101369.09;;;15.22;100.00
19797;BME280;10058;57.654;12.044;2022-10-28T10:29:49;101367.44;;;15.30;100.00
19797;BME280;10058;57.654;12.044;2022-10-28T10:32:19;101365.56;;;15.26;100.00
19797;BME280;10058;57.654;12.044;2022-10-28T10:37:24;101365.75;;;15.36;100.00
19797;BME280;10058;57.654;12.044;2022-10-28T10:42:42;101356.97;;;15.40;100.00
19797;BME280;10058;57.654;12.044;2022-10-28T10:47:38;101358.63;;;15.35;100.00
19797;BME280;10058;57.654;12.044;2022-10-28T10:52:49;101340.69;;;15.23;100.00
19797;BME280;10058;57.654;12.044;2022-10-28T10:55:21;101338.03;;;15.26;100.00
19797;BME280;10058;57.654;12.044;2022-10-28T10:57:47;101338.94;;;15.26;100.00
19797;BME280;10058;57.654;12.044;2022-10-28T11:00:16;101337.22;;;15.28;100.00
19797;BME280;10058;57.654;12.044;2022-10-28T11:02:44;101327.47;;;15.30;100.00
19797;BME280;10058;57.654;12.044;2022-10-28T11:05:11;101332.78;;;15.29;100.00
19797;BME280;10058;57.654;12.044;2022-10-28T11:07:44;101328.28;;;15.26;100.00
19797;BME280;10058;57.654;12.044;2022-10-28T11:10:24;101334.56;;;15.28;100.00
19797;BME280;10058;57.654;12.044;2022-10-28T11:12:57;101339.84;;;15.27;100.00
19797;BME280;10058;57.654;12.044;2022-10-28T11:15:27;101346.91;;;15.23;100.00
19797;BME280;10058;57.654;12.044;2022-10-28T11:18:09;101336.06;;;15.14;100.00
19797;BME280;10058;57.654;12.044;2022-10-28T11:23:12;101339.66;;;15.16;100.00
19797;BME280;10058;57.654;12.044;2022-10-28T11:25:40;101347.31;;;14.98;100.00
19797;BME280;10058;57.654;12.044;2022-10-28T11:33:18;101340.59;;;15.18;100.00
19797;BME280;10058;57.654;12.044;2022-10-28T11:41:13;101279.84;;;14.96;100.00
19797;BME280;10058;57.654;12.044;2022-10-28T11:43:50;101311.19;;;15.12;100.00
19797;BME280;10058;57.654;12.044;2022-10-28T11:53:57;101308.72;;;15.24;100.00
19797;BME280;10058;57.654;12.044;2022-10-28T11:56:32;101299.91;;;15.28;100.00
19797;BME280;10058;57.654;12.044;2022-10-28T12:17:30;101281.84;;;15.09;100.00
19797;BME280;10058;57.654;12.044;2022-10-28T12:20:00;101288.81;;;15.01;100.00
19797;BME280;10058;57.654;12.044;2022-10-28T12:24:51;101283.69;;;15.13;100.00
19797;BME280;10058;57.654;12.044;2022-10-28T12:27:19;101292.66;;;15.18;100.00
19797;BME280;10058;57.654;12.044;2022-10-28T12:29:50;101280.16;;;15.14;100.00
19797;BME280;10058;57.654;12.044;2022-10-28T12:32:21;101280.22;;;15.17;100.00
19797;BME280;10058;57.654;12.044;2022-10-28T12:34:52;101270.38;;;15.13;100.00
19797;BME280;10058;57.654;12.044;2022-10-28T12:37:20;101271.16;;;15.08;100.00
19797;BME280;10058;57.654;12.044;2022-10-28T12:42:18;101276.31;;;14.97;100.00
19797;BME280;10058;57.654;12.044;2022-10-28T12:44:44;101279.97;;;15.02;100.00
19797;BME280;10058;57.654;12.044;2022-10-28T12:47:13;101286.22;;;15.04;100.00
19797;BME280;10058;57.654;12.044;2022-10-28T12:52:13;101288.91;;;15.07;100.00
19797;BME280;10058;57.654;12.044;2022-10-28T12:54:50;101278.25;;;15.07;100.00
19797;BME280;10058;57.654;12.044;2022-10-28T12:57:18;101272.91;;;15.07;100.00
19797;BME280;10058;57.654;12.044;2022-10-28T12:59:46;101268.56;;;15.11;100.00
19797;BME280;10058;57.654;12.044;2022-10-28T13:02:15;101280.91;;;15.06;100.00
19797;BME280;10058;57.654;12.044;2022-10-28T13:04:41;101281.81;;;15.06;100.00
19797;BME280;10058;57.654;12.044;2022-10-28T13:23:04;101251.19;;;15.34;100.00
19797;BME280;10058;57.654;12.044;2022-10-28T13:28:02;101252.72;;;15.18;100.00
19797;BME280;10058;57.654;12.044;2022-10-28T13:30:28;101248.22;;;15.14;100.00
19797;BME280;10058;57.654;12.044;2022-10-28T13:33:15;101250.94;;;15.17;100.00
19797;BME280;10058;57.654;12.044;2022-10-28T13:35:43;101255.31;;;15.15;100.00
19797;BME280;10058;57.654;12.044;2022-10-28T13:38:11;101258.72;;;15.07;100.00
19797;BME280;10058;57.654;12.044;2022-10-28T13:43:02;101270.41;;;15.15;100.00
19797;BME280;10058;57.654;12.044;2022-10-28T13:51:43;101253.41;;;15.05;100.00
19797;BME280;10058;57.654;12.044;2022-10-28T13:53:38;101256.94;;;15.07;100.00
19797;BME280;10058;57.654;12.044;2022-10-28T13:56:10;101251.47;;;14.98;100.00
19797;BME280;10058;57.654;12.044;2022-10-28T13:58:36;101244.63;;;15.12;100.00
19797;BME280;10058;57.654;12.044;2022-10-28T14:03:49;101255.28;;;15.12;100.00
19797;BME280;10058;57.654;12.044;2022-10-28T14:06:16;101241.09;;;15.13;100.00
19797;BME280;10058;57.654;12.044;2022-10-28T14:08:53;101214.28;;;15.01;100.00
19797;BME280;10058;57.654;12.044;2022-10-28T14:11:23;101231.28;;;15.11;100.00
19797;BME280;10058;57.654;12.044;2022-10-28T14:13:50;101242.81;;;15.11;100.00
19797;BME280;10058;57.654;12.044;2022-10-28T14:24:49;101250.72;;;15.05;100.00
19797;BME280;10058;57.654;12.044;2022-10-28T14:34:55;101219.00;;;15.19;100.00
19797;BME280;10058;57.654;12.044;2022-10-28T14:37:26;101210.06;;;15.15;100.00
19797;BME280;10058;57.654;12.044;2022-10-28T14:42:25;101189.63;;;15.14;100.00
19797;BME280;10058;57.654;12.044;2022-10-28T14:45:10;101182.50;;;15.13;100.00
19797;BME280;10058;57.654;12.044;2022-10-28T14:48:03;101175.56;;;15.21;100.00
19797;BME280;10058;57.654;12.044;2022-10-28T14:50:44;101179.13;;;15.23;100.00
19797;BME280;10058;57.654;12.044;2022-10-28T14:53:19;101171.06;;;15.19;100.00
19797;BME280;10058;57.654;12.044;2022-10-28T14:55:48;101175.50;;;15.18;100.00
19797;BME280;10058;57.654;12.044;2022-10-28T14:58:23;101190.47;;;15.12;100.00
19797;BME280;10058;57.654;12.044;2022-10-28T15:03:35;101179.88;;;15.15;100.00
19797;BME280;10058;57.654;12.044;2022-10-28T15:06:01;101189.69;;;15.17;100.00
19797;BME280;10058;57.654;12.044;2022-10-28T15:08:27;101182.63;;;15.19;100.00
19797;BME280;10058;57.654;12.044;2022-10-28T15:10:52;101179.91;;;15.16;100.00
19797;BME280;10058;57.654;12.044;2022-10-28T15:13:17;101180.72;;;15.12;100.00
19797;BME280;10058;57.654;12.044;2022-10-28T15:15:51;101181.63;;;15.13;100.00
19797;BME280;10058;57.654;12.044;2022-10-28T15:18:21;101184.31;;;15.14;100.00